CNP3 weather

Arnprior Airport
Arnprior, Ontario, Canada

Public forecast

Using degrees Celsius for public forecast. Weather courtesy of forecast.io.

Closest aviation weather report (METAR) to Arnprior Airport

Closest report is Ottawa Macdonald-Cartier International Airport, 29.9 nm (55.4 km) E. Retrieved 2020/01/22 04:00 UTC (31 minutes ago):

CYOW 220400Z 21013G18KT 15SM BKN030 M04/M08 A3026 RMK SC7 SLP257

Closest aviation forecast (TAF) to Arnprior Airport

Closest forecast is Ottawa Macdonald-Cartier International Airport, 29.9 nm (55.4 km) E. Retrieved 2020-01-22 03:42 UTC (49 minutes ago):

TAF CYOW 220238Z 2203/2224 20010KT P6SM SCT030 BKN100 TEMPO 2204/2217 BKN030 OVC100 FM221700 22012G22KT P6SM FEW025 BKN200 BECMG 2221/2223 22008KT RMK NXT FCST BY 220600Z